Armstrong, IA

1:25 PM CDT on October 21, 2014 (GMT -0500)
Estherville Municipal | Change Station
CLOSE
Current Station
Airport
Location: Estherville,
Elevation: 1316 ft
Nearby Weather Stations

Elev 1316 ft 43.40 °N, 94.75 °W | Updated 33 minutes ago

Clear
Clear
63 °F
Feels Like 63 °F
N
13
Wind Variable Wind from SSE

Today
High -- | Low -- °F
--% Chance of Precip.
Yesterday
High -- | Low -- °F
Precip. -- in
7:39 AM 6:25 PM
Waning Crescent, 5% visible
Pressure 30.13 in
Visibility 10.0 miles
Clouds Clear
Dew Point 41 °F
Humidity 45%
Rainfall 0.00 in
Snow Depth Not available.
UV 4 out of 12
Pollen 1.40 out of 12
Air Quality Not available.
Flu Activity Sporadic
METAR KEST 211752Z AUTO 16011KT 10SM CLR 17/05 A3011 RMK AO2 SLP202 T01720050 10172 21011 58010

More Conditions Fewer Conditions

Pressure 30.13 in
Visibility 10.0 miles
Clouds Clear
Dew Point 41 °F
Humidity 45%
Rainfall 0.00 in
Snow Depth Not available.
UV 4 out of 12
Pollen 1.40 out of 12
Air Quality Not available.
Flu Activity Sporadic
METAR KEST 211752Z AUTO 16011KT 10SM CLR 17/05 A3011 RMK AO2 SLP202 T01720050 10172 21011 58010

More Conditions Fewer Conditions

10-Day Weather Forecast

Almanac

Astronomy

Oct. 21, 2014 Rise Set
Actual Time 7:39 AM CDT 6:25 PM CDT
Civil Twilight 7:10 AM CDT 6:54 PM CDT
Nautical Twilight 6:36 AM CDT 7:27 PM CDT
Astronomical Twilight 6:03 AM CDT 8:00 PM CDT
Moon 5:20 AM CDT 5:22 PM CDT
Length of Visible Light 11h 43m
Length of Day
10h 45m
Tomorrow will be 2m 48s shorter.
Waning Crescent, 5% of the Moon is Illuminated
Today
Waning Crescent
Oct 23
New
Oct 30
First Quarter
Nov 6
Full
Nov 14
Last Quarter

Today's Extremes

State Highs State Lows

Community

WunderPhotos

Upload Photos

1,763,738 photos uploaded!

Nearby

Snow Depth

Station Depth Elevation
No new snow has been reported.

Earthquake Activity

City Distance Mag. Time & Date
No recent earthquake activity has been reported nearby.
Minimum magnitude displayed is 2.5.

Coastal Water Temperatures

Place Temperature
No Stations Reporting

Nearby Weather Stations